createdAt,value
2018-08-07T00:00:07.232Z,0
2018-08-07T00:01:07.875Z,0
2018-08-07T00:02:07.575Z,0
2018-08-07T00:03:27.466Z,0
2018-08-07T00:04:28.196Z,0
2018-08-07T00:05:28.512Z,0
2018-08-07T00:06:28.073Z,0
2018-08-07T00:07:27.651Z,0
2018-08-07T00:08:28.125Z,0
2018-08-07T00:09:27.936Z,0
2018-08-07T00:10:27.744Z,0
2018-08-07T00:11:28.431Z,0
2018-08-07T00:12:28.134Z,0
2018-08-07T00:13:27.964Z,0
2018-08-07T00:14:27.694Z,0
2018-08-07T00:15:28.249Z,0
2018-08-07T00:16:28.236Z,0
2018-08-07T00:17:27.933Z,0
2018-08-07T00:18:27.569Z,0
2018-08-07T00:19:28.101Z,0
2018-08-07T00:20:27.686Z,0
2018-08-07T00:21:28.438Z,0
2018-08-07T00:22:28.080Z,0
2018-08-07T00:23:27.806Z,0
2018-08-07T00:24:27.564Z,0
2018-08-07T00:25:28.467Z,0
2018-08-07T00:26:28.046Z,0
2018-08-07T00:27:48.110Z,0
2018-08-07T00:29:29.417Z,0
2018-08-07T00:30:30.087Z,0
2018-08-07T00:31:50.380Z,0
2018-08-07T00:32:51.089Z,0
2018-08-07T00:33:50.768Z,0
2018-08-07T00:34:50.381Z,0
2018-08-07T00:35:51.107Z,0
2018-08-07T00:36:50.825Z,0
2018-08-07T00:37:50.769Z,0
2018-08-07T00:38:50.378Z,0
2018-08-07T00:39:50.894Z,0
2018-08-07T00:40:51.583Z,0
2018-08-07T00:42:31.843Z,0
2018-08-07T00:43:32.513Z,0
2018-08-07T00:45:12.658Z,0
2018-08-07T00:46:13.148Z,0
2018-08-07T00:47:33.433Z,0
2018-08-07T00:48:34.231Z,0
2018-08-07T00:49:33.781Z,0
2018-08-07T00:50:33.555Z,0
2018-08-07T00:51:54.625Z,0
2018-08-07T00:52:55.383Z,0
2018-08-07T00:53:54.920Z,0
2018-08-07T00:54:55.638Z,0
2018-08-07T00:55:55.219Z,0
2018-08-07T00:56:54.938Z,0
2018-08-07T00:57:55.627Z,0
2018-08-07T00:59:15.557Z,0
2018-08-07T01:00:16.185Z,0
2018-08-07T01:01:15.882Z,0
2018-08-07T01:02:16.508Z,0
2018-08-07T01:03:16.253Z,0
2018-08-07T01:04:15.802Z,0
2018-08-07T01:05:16.515Z,0
2018-08-07T01:06:16.161Z,0
2018-08-07T01:07:15.723Z,0
2018-08-07T01:08:16.468Z,0
2018-08-07T01:09:16.017Z,0
2018-08-07T01:10:15.644Z,0
2018-08-07T01:11:16.440Z,0
2018-08-07T01:12:15.936Z,0
2018-08-07T01:13:15.622Z,0
2018-08-07T01:14:16.302Z,0
2018-08-07T01:15:15.874Z,0
2018-08-07T01:16:15.558Z,0
2018-08-07T01:17:16.176Z,0
2018-08-07T01:18:36.021Z,0
2018-08-07T01:19:36.481Z,0
2018-08-07T01:20:36.019Z,0
2018-08-07T01:21:56.871Z,0
2018-08-07T01:22:57.406Z,0
2018-08-07T01:23:57.091Z,0
2018-08-07T01:24:57.721Z,0
2018-08-07T01:25:57.416Z,0
2018-08-07T01:26:56.941Z,0
2018-08-07T01:27:57.554Z,0
2018-08-07T01:28:58.211Z,0
2018-08-07T01:29:57.860Z,0
2018-08-07T01:31:18.136Z,0
2018-08-07T01:32:18.778Z,0
2018-08-07T01:33:18.525Z,0
2018-08-07T01:34:38.449Z,0
2018-08-07T01:35:38.955Z,0
2018-08-07T01:36:38.492Z,0
2018-08-07T01:37:39.249Z,0
2018-08-07T01:38:59.554Z,0
2018-08-07T01:39:59.026Z,0
2018-08-07T01:40:59.654Z,0
2018-08-07T01:41:59.391Z,0
2018-08-07T01:43:00.100Z,0
2018-08-07T01:43:59.752Z,0
2018-08-07T01:44:59.311Z,0
2018-08-07T01:46:00.004Z,0
2018-08-07T01:46:59.500Z,0
2018-08-07T01:47:59.214Z,0
2018-08-07T01:48:59.845Z,0
2018-08-07T01:50:19.843Z,0
2018-08-07T01:51:20.423Z,0
2018-08-07T01:52:20.139Z,0
2018-08-07T01:53:41.171Z,0
2018-08-07T01:54:41.609Z,0
2018-08-07T01:55:41.297Z,0
2018-08-07T01:56:41.858Z,0
2018-08-07T01:57:41.654Z,0
2018-08-07T01:58:41.302Z,0
2018-08-07T01:59:42.096Z,0
2018-08-07T02:00:41.797Z,0
2018-08-07T02:01:41.391Z,0
2018-08-07T02:02:42.042Z,0
2018-08-07T02:03:41.610Z,0
2018-08-07T02:04:41.253Z,0
2018-08-07T02:05:41.989Z,0
2018-08-07T02:06:41.532Z,0
2018-08-07T02:08:01.563Z,0
2018-08-07T02:09:02.184Z,0
2018-08-07T02:10:01.859Z,0
2018-08-07T02:11:02.415Z,0
2018-08-07T02:12:02.171Z,0
2018-08-07T02:13:01.672Z,0
2018-08-07T02:14:22.651Z,0
2018-08-07T02:15:23.235Z,0
2018-08-07T02:16:43.339Z,0
2018-08-07T02:17:43.986Z,0
2018-08-07T02:19:04.256Z,0
2018-08-07T02:20:04.979Z,0
2018-08-07T02:21:04.570Z,0
2018-08-07T02:22:37.361Z,0
2018-08-07T02:23:36.963Z,0
2018-08-07T02:24:36.631Z,0
2018-08-07T02:25:57.668Z,0
2018-08-07T02:26:58.345Z,0
2018-08-07T02:27:57.971Z,0
2018-08-07T02:28:58.537Z,0
2018-08-07T02:29:58.059Z,0
2018-08-07T02:30:57.801Z,0
2018-08-07T02:31:58.540Z,0
2018-08-07T02:32:58.138Z,0
2018-08-07T02:33:57.835Z,0
2018-08-07T02:34:58.366Z,0
2018-08-07T02:35:57.968Z,0
2018-08-07T02:36:57.655Z,0
2018-08-07T02:37:58.244Z,0
2018-08-07T02:38:57.743Z,0
2018-08-07T02:39:58.447Z,0
2018-08-07T02:40:58.051Z,0
2018-08-07T02:41:57.671Z,0
2018-08-07T02:42:58.485Z,0
2018-08-07T02:43:58.133Z,0
2018-08-07T02:44:57.942Z,0
2018-08-07T02:46:40.948Z,0
2018-08-07T02:47:41.620Z,0
2018-08-07T02:48:39.267Z,0
2018-08-07T02:49:38.839Z,0
2018-08-07T02:50:38.743Z,0
2018-08-07T02:51:39.413Z,0
2018-08-07T02:52:39.111Z,0
2018-08-07T02:53:59.220Z,0
2018-08-07T02:54:59.869Z,0
2018-08-07T02:55:59.540Z,0
2018-08-07T02:56:59.123Z,0
2018-08-07T02:57:59.811Z,0
2018-08-07T02:59:19.637Z,0
2018-08-07T03:00:20.342Z,0
2018-08-07T03:01:19.833Z,0
2018-08-07T03:02:20.330Z,0
2018-08-07T03:03:19.816Z,0
2018-08-07T03:04:20.351Z,0
2018-08-07T03:05:19.995Z,0
2018-08-07T03:06:20.637Z,0
2018-08-07T03:07:20.327Z,0
2018-08-07T03:08:40.373Z,0
2018-08-07T03:09:40.943Z,0
2018-08-07T03:10:40.509Z,0
2018-08-07T03:12:01.620Z,0
2018-08-07T03:13:02.242Z,0
2018-08-07T03:14:01.773Z,0
2018-08-07T03:15:23.162Z,0
2018-08-07T03:16:23.689Z,0
2018-08-07T03:17:23.315Z,0
2018-08-07T03:18:23.929Z,0
2018-08-07T03:19:23.642Z,0
2018-08-07T03:20:23.240Z,0
2018-08-07T03:21:23.074Z,0
2018-08-07T03:22:23.899Z,0
2018-08-07T03:23:23.535Z,0
2018-08-07T03:24:23.011Z,0
2018-08-07T03:25:23.545Z,0
2018-08-07T03:26:23.184Z,0
2018-08-07T03:27:23.936Z,0
2018-08-07T03:28:43.941Z,0
2018-08-07T03:29:44.561Z,0
2018-08-07T03:30:44.496Z,0
2018-08-07T03:31:44.118Z,0
2018-08-07T03:32:44.817Z,0
2018-08-07T03:34:04.806Z,0
2018-08-07T03:35:26.064Z,0
2018-08-07T03:36:26.532Z,0
2018-08-07T03:37:26.142Z,0
2018-08-07T03:38:47.061Z,0
2018-08-07T03:39:47.753Z,0
2018-08-07T03:41:07.828Z,0
2018-08-07T03:42:08.562Z,0
2018-08-07T03:43:08.192Z,0
2018-08-07T03:44:07.888Z,1
2018-08-07T03:45:08.592Z,1
2018-08-07T03:46:28.588Z,1
2018-08-07T03:47:29.283Z,1
2018-08-07T03:48:49.291Z,1
2018-08-07T03:49:50.206Z,1
2018-08-07T03:50:50.044Z,2
2018-08-07T03:51:49.890Z,2
2018-08-07T03:52:49.546Z,2
2018-08-07T03:53:50.327Z,2
2018-08-07T03:54:50.248Z,2
2018-08-07T03:55:49.877Z,3
2018-08-07T03:56:49.622Z,3
2018-08-07T03:57:49.419Z,3
2018-08-07T03:58:50.315Z,3
2018-08-07T03:59:50.063Z,4
2018-08-07T04:00:50.033Z,4
2018-08-07T04:01:49.962Z,4
2018-08-07T04:02:49.636Z,5
2018-08-07T04:03:49.346Z,5
2018-08-07T04:04:50.187Z,5
2018-08-07T04:06:10.382Z,6
2018-08-07T04:08:12.261Z,7
2018-08-07T04:09:12.964Z,7
2018-08-07T04:10:12.695Z,7
2018-08-07T04:11:12.455Z,8
2018-08-07T04:12:24.631Z,8
2018-08-07T04:13:19.799Z,9
2018-08-07T04:14:12.427Z,9
2018-08-07T04:15:33.762Z,10
2018-08-07T04:16:34.595Z,10
2018-08-07T04:17:34.381Z,11
2018-08-07T04:18:34.205Z,11
2018-08-07T04:19:33.915Z,12
2018-08-07T04:20:34.706Z,12
2018-08-07T04:21:34.387Z,13
2018-08-07T04:22:34.109Z,13
2018-08-07T04:23:33.866Z,14
2018-08-07T04:24:34.543Z,14
2018-08-07T04:25:34.362Z,15
2018-08-07T04:26:34.017Z,15
2018-08-07T04:27:33.841Z,16
2018-08-07T04:28:34.732Z,16
2018-08-07T04:29:54.881Z,17
2018-08-07T04:30:55.894Z,18
2018-08-07T04:31:55.633Z,18
2018-08-07T04:32:55.435Z,19
2018-08-07T04:33:55.250Z,19
2018-08-07T04:34:55.142Z,20
2018-08-07T04:36:16.456Z,21
2018-08-07T04:37:17.083Z,21
2018-08-07T04:38:16.732Z,22
2018-08-07T04:39:17.376Z,22
2018-08-07T04:40:17.053Z,23
2018-08-07T04:41:16.639Z,23
2018-08-07T04:42:17.344Z,24
2018-08-07T04:43:37.293Z,25
2018-08-07T04:44:37.906Z,26
2018-08-07T04:45:37.583Z,27
2018-08-07T04:46:37.321Z,27
2018-08-07T04:47:38.026Z,28
2018-08-07T04:48:37.789Z,28
2018-08-07T04:49:37.378Z,29
2018-08-07T04:50:38.172Z,29
2018-08-07T04:51:37.876Z,31
2018-08-07T04:52:37.582Z,32
2018-08-07T04:53:37.217Z,31
2018-08-07T04:54:37.954Z,31
2018-08-07T04:55:37.696Z,32
2018-08-07T04:56:37.294Z,33
2018-08-07T04:57:57.705Z,33
2018-08-07T04:58:58.303Z,34
2018-08-07T04:59:57.955Z,35
2018-08-07T05:00:57.800Z,35
2018-08-07T05:01:58.334Z,35
2018-08-07T05:02:58.006Z,36
2018-08-07T05:03:57.772Z,36
2018-08-07T05:04:58.355Z,37
2018-08-07T05:05:58.027Z,37
2018-08-07T05:06:57.697Z,38
2018-08-07T05:07:58.457Z,38
2018-08-07T05:08:58.122Z,39
2018-08-07T05:09:57.822Z,40
2018-08-07T05:10:58.443Z,40
2018-08-07T05:11:58.258Z,41
2018-08-07T05:12:58.029Z,41
2018-08-07T05:13:57.728Z,42
2018-08-07T05:14:58.498Z,43
2018-08-07T05:15:58.053Z,44
2018-08-07T05:16:57.961Z,44
2018-08-07T05:17:57.760Z,44
2018-08-07T05:18:58.445Z,47
2018-08-07T05:19:58.050Z,51
2018-08-07T05:20:57.638Z,51
2018-08-07T05:21:58.323Z,48
2018-08-07T05:22:58.089Z,48
2018-08-07T05:23:57.922Z,49
2018-08-07T05:24:57.663Z,53
2018-08-07T05:25:58.435Z,54
2018-08-07T05:26:58.164Z,51
2018-08-07T05:27:57.889Z,50
2018-08-07T05:28:58.556Z,51
2018-08-07T05:29:58.380Z,51
2018-08-07T05:30:58.129Z,52
2018-08-07T05:31:57.746Z,55
2018-08-07T05:32:58.656Z,68
2018-08-07T05:33:58.426Z,88
2018-08-07T05:34:58.137Z,97
2018-08-07T05:35:57.786Z,104
2018-08-07T05:36:59.500Z,110
2018-08-07T05:37:58.323Z,113
2018-08-07T05:39:18.663Z,119
2018-08-07T05:40:19.581Z,122
2018-08-07T05:41:19.411Z,122
2018-08-07T05:42:19.132Z,124
2018-08-07T05:43:18.836Z,127
2018-08-07T05:44:18.779Z,131
2018-08-07T05:45:19.769Z,133
2018-08-07T05:46:19.590Z,138
2018-08-07T05:47:19.416Z,137
2018-08-07T05:48:19.224Z,141
2018-08-07T05:49:19.113Z,146
2018-08-07T05:50:19.024Z,152
2018-08-07T05:51:30.931Z,155
2018-08-07T05:52:41.048Z,156
2018-08-07T05:53:40.770Z,160
2018-08-07T05:54:40.503Z,159
2018-08-07T05:55:41.182Z,164
2018-08-07T05:56:40.992Z,165
2018-08-07T05:57:40.904Z,159
2018-08-07T05:58:40.837Z,158
2018-08-07T05:59:40.644Z,167
2018-08-07T06:00:41.343Z,171
2018-08-07T06:02:02.287Z,173
2018-08-07T06:03:01.994Z,174
2018-08-07T06:04:01.771Z,177
2018-08-07T06:05:02.569Z,186
2018-08-07T06:06:02.578Z,181
2018-08-07T06:07:02.343Z,177
2018-08-07T06:08:02.145Z,176
2018-08-07T06:09:02.107Z,182
2018-08-07T06:10:02.154Z,186
2018-08-07T06:11:22.922Z,196
2018-08-07T06:12:23.591Z,193
2018-08-07T06:13:43.714Z,202
2018-08-07T06:14:44.570Z,204
2018-08-07T06:15:44.314Z,212
2018-08-07T06:17:04.791Z,208
2018-08-07T06:18:05.696Z,213
2018-08-07T06:19:27.075Z,215
2018-08-07T06:20:27.700Z,221
2018-08-07T06:21:27.595Z,221
2018-08-07T06:22:27.826Z,222
2018-08-07T06:23:27.552Z,230
2018-08-07T06:24:27.695Z,234
2018-08-07T06:25:28.243Z,238
2018-08-07T06:26:28.107Z,243
2018-08-07T06:27:27.122Z,242
2018-08-07T06:28:27.893Z,248
2018-08-07T06:29:27.902Z,243
2018-08-07T06:30:27.794Z,234
2018-08-07T06:31:27.708Z,239
2018-08-07T06:32:27.709Z,243
2018-08-07T06:33:27.534Z,241
2018-08-07T06:34:27.154Z,238
2018-08-07T06:35:27.887Z,247
2018-08-07T06:36:27.611Z,248
2018-08-07T06:37:27.389Z,250
2018-08-07T06:38:27.107Z,262
2018-08-07T06:39:27.053Z,270
2018-08-07T06:40:27.920Z,268
2018-08-07T06:41:27.947Z,275
2018-08-07T06:42:27.803Z,276
2018-08-07T06:43:27.932Z,282
2018-08-07T06:44:28.150Z,288
2018-08-07T06:45:27.876Z,283
2018-08-07T06:46:27.780Z,273
2018-08-07T06:47:27.589Z,287
2018-08-07T06:48:27.382Z,297
2018-08-07T06:49:47.888Z,307
2018-08-07T06:50:48.737Z,304
2018-08-07T06:52:30.103Z,301
2018-08-07T06:53:30.880Z,296
2018-08-07T06:54:30.686Z,292
2018-08-07T06:55:30.520Z,304
2018-08-07T06:56:30.230Z,324
2018-08-07T06:57:30.102Z,328
2018-08-07T06:58:30.084Z,317
2018-08-07T06:59:29.941Z,322
2018-08-07T07:00:30.216Z,326
2018-08-07T07:01:30.294Z,319
2018-08-07T07:02:30.452Z,318
2018-08-07T07:03:31.147Z,316
2018-08-07T07:04:30.565Z,327
2018-08-07T07:05:30.307Z,325
2018-08-07T07:06:30.896Z,306
2018-08-07T07:07:30.612Z,314
2018-08-07T07:08:30.373Z,350
2018-08-07T07:09:30.370Z,355
2018-08-07T07:10:30.342Z,350
2018-08-07T07:11:30.161Z,360
2018-08-07T07:12:30.206Z,366
2018-08-07T07:13:30.642Z,353
2018-08-07T07:14:30.559Z,346
2018-08-07T07:15:30.374Z,370
2018-08-07T07:16:51.116Z,366
2018-08-07T07:17:52.137Z,343
2018-08-07T07:18:52.577Z,319
2018-08-07T07:19:51.463Z,304
2018-08-07T07:20:51.376Z,327
2018-08-07T07:21:52.351Z,355
2018-08-07T07:22:51.145Z,350
2018-08-07T07:23:51.178Z,346
2018-08-07T07:24:51.156Z,344
2018-08-07T07:25:51.941Z,345
2018-08-07T07:27:32.809Z,340
2018-08-07T07:28:33.796Z,360
2018-08-07T07:29:33.701Z,390
2018-08-07T07:30:33.516Z,397
2018-08-07T07:31:34.419Z,437
2018-08-07T07:32:33.235Z,444
2018-08-07T07:33:33.102Z,415
2018-08-07T07:34:33.102Z,414
2018-08-07T07:35:32.931Z,421
2018-08-07T07:36:33.780Z,428
2018-08-07T07:37:33.531Z,409
2018-08-07T07:38:34.492Z,413
2018-08-07T07:39:56.690Z,451
2018-08-07T07:40:56.871Z,454
2018-08-07T07:41:56.848Z,443
2018-08-07T07:42:57.023Z,436
2018-08-07T07:44:19.338Z,440
2018-08-07T07:45:19.831Z,447
2018-08-07T07:46:19.902Z,434
2018-08-07T07:47:19.709Z,437
2018-08-07T07:48:19.959Z,458
2018-08-07T07:49:19.693Z,466
2018-08-07T07:50:19.857Z,467
2018-08-07T07:51:19.628Z,472
2018-08-07T07:52:19.565Z,493
2018-08-07T07:53:19.423Z,490
2018-08-07T07:54:19.278Z,451
2018-08-07T07:55:19.148Z,450
2018-08-07T07:56:19.050Z,449
2018-08-07T07:57:18.999Z,436
2018-08-07T07:58:19.800Z,428
2018-08-07T07:59:20.271Z,441
2018-08-07T08:00:20.138Z,476
2018-08-07T08:01:41.441Z,492
2018-08-07T08:02:42.063Z,483
2018-08-07T08:03:41.763Z,488
2018-08-07T08:04:41.670Z,488
2018-08-07T08:05:41.522Z,488
2018-08-07T08:06:42.438Z,508
2018-08-07T08:07:42.242Z,517
2018-08-07T08:08:42.137Z,511
2018-08-07T08:10:04.120Z,516
2018-08-07T08:11:03.887Z,496
2018-08-07T08:12:25.216Z,469
2018-08-07T08:13:26.071Z,457
2018-08-07T08:14:25.638Z,479
2018-08-07T08:15:25.506Z,510
2018-08-07T08:16:25.689Z,509
2018-08-07T08:17:47.313Z,502
2018-08-07T08:19:08.900Z,521
2018-08-07T08:20:31.311Z,504
2018-08-07T08:21:53.641Z,525
2018-08-07T08:24:00.159Z,506
2018-08-07T08:25:00.167Z,527
2018-08-07T08:26:00.973Z,551
2018-08-07T08:27:01.102Z,544
2018-08-07T08:28:00.803Z,534
2018-08-07T08:29:00.878Z,535
2018-08-07T08:30:22.775Z,523
2018-08-07T08:31:25.921Z,523
2018-08-07T08:32:22.745Z,543
2018-08-07T08:33:23.469Z,545
2018-08-07T08:34:23.447Z,546
2018-08-07T08:35:23.449Z,551
2018-08-07T08:36:23.660Z,536
2018-08-07T08:37:24.226Z,525
2018-08-07T08:38:44.432Z,535
2018-08-07T08:40:07.483Z,565
2018-08-07T08:41:08.143Z,566
2018-08-07T08:42:08.013Z,570
2018-08-07T08:43:07.667Z,583
2018-08-07T08:44:08.498Z,586
2018-08-07T08:45:08.386Z,595
2018-08-07T08:46:09.692Z,596
2018-08-07T08:47:07.603Z,593
2018-08-07T08:48:13.201Z,591
2018-08-07T08:49:08.380Z,594
2018-08-07T08:50:08.524Z,591
2018-08-07T08:51:12.226Z,586
2018-08-07T08:52:08.730Z,606
2018-08-07T08:53:11.980Z,625
2018-08-07T08:54:31.072Z,601
2018-08-07T08:55:31.553Z,602
2018-08-07T08:56:31.531Z,625
2018-08-07T08:57:31.596Z,401
2018-08-07T08:58:31.588Z,528
2018-08-07T08:59:52.474Z,627
2018-08-07T09:00:52.827Z,625
2018-08-07T09:01:53.471Z,613
2018-08-07T09:02:53.203Z,583
2018-08-07T09:03:52.860Z,358
2018-08-07T09:04:52.934Z,446
2018-08-07T09:05:52.959Z,542
2018-08-07T09:06:53.151Z,531
2018-08-07T09:07:53.245Z,569
2018-08-07T09:08:53.073Z,565
2018-08-07T09:10:14.593Z,581
2018-08-07T09:11:14.460Z,613
2018-08-07T09:12:15.160Z,607
2018-08-07T09:13:36.756Z,644
2018-08-07T09:14:37.407Z,633
2018-08-07T09:15:37.286Z,614
2018-08-07T09:16:37.124Z,617
2018-08-07T09:17:37.013Z,639
2018-08-07T09:18:37.016Z,665
2018-08-07T09:19:37.488Z,664
2018-08-07T09:20:37.616Z,654
2018-08-07T09:21:37.543Z,654
2018-08-07T09:22:38.888Z,653
2018-08-07T09:23:36.866Z,659
2018-08-07T09:24:36.873Z,654
2018-08-07T09:25:37.976Z,670
2018-08-07T09:26:37.013Z,656
2018-08-07T09:27:36.850Z,611
2018-08-07T09:28:58.438Z,624
2018-08-07T09:30:23.489Z,609
2018-08-07T09:31:24.034Z,586
2018-08-07T09:32:23.759Z,563
2018-08-07T09:33:23.834Z,594
2018-08-07T09:34:45.384Z,663
2018-08-07T09:36:08.018Z,672
2018-08-07T09:37:09.823Z,669
2018-08-07T09:38:08.733Z,643
2018-08-07T09:39:08.562Z,661
2018-08-07T09:40:08.618Z,680
2018-08-07T09:41:08.656Z,635
2018-08-07T09:42:30.234Z,610
2018-08-07T09:44:16.626Z,603
2018-08-07T09:45:39.516Z,608
2018-08-07T09:46:40.458Z,575
2018-08-07T09:47:39.342Z,571
2018-08-07T09:49:01.218Z,643
2018-08-07T09:50:01.076Z,689
2018-08-07T09:51:01.379Z,669
2018-08-07T09:52:01.782Z,658
2018-08-07T09:53:00.864Z,659
2018-08-07T09:54:01.357Z,626
2018-08-07T09:55:00.989Z,616
2018-08-07T09:56:00.852Z,649
2018-08-07T09:57:00.604Z,663
2018-08-07T09:58:00.650Z,643
2018-08-07T09:59:01.413Z,646
2018-08-07T10:00:01.294Z,673
2018-08-07T10:01:00.948Z,683
2018-08-07T10:02:01.040Z,683
2018-08-07T10:03:00.742Z,683
2018-08-07T10:04:01.492Z,650
2018-08-07T10:05:01.399Z,590
2018-08-07T10:06:01.212Z,564
2018-08-07T10:07:01.030Z,574
2018-08-07T10:08:01.707Z,603
2018-08-07T10:09:01.433Z,632
2018-08-07T10:10:01.198Z,639
2018-08-07T10:11:01.348Z,608
2018-08-07T10:12:25.783Z,532
2018-08-07T10:13:26.724Z,510
2018-08-07T10:14:27.305Z,556
2018-08-07T10:15:26.205Z,605
2018-08-07T10:16:26.596Z,607
2018-08-07T10:17:48.860Z,616
2018-08-07T10:18:48.799Z,593
2018-08-07T10:19:48.807Z,559
2018-08-07T10:20:48.865Z,552
2018-08-07T10:21:48.661Z,583
2018-08-07T10:23:10.251Z,604
2018-08-07T10:24:56.609Z,592
2018-08-07T10:25:57.499Z,599
2018-08-07T10:26:58.533Z,578
2018-08-07T10:27:57.619Z,542
2018-08-07T10:28:57.619Z,528
2018-08-07T10:29:57.322Z,545
2018-08-07T10:30:57.084Z,584
2018-08-07T10:31:56.896Z,590
2018-08-07T10:32:56.941Z,599
2018-08-07T10:33:56.731Z,611
2018-08-07T10:34:57.520Z,607
2018-08-07T10:35:57.993Z,605
2018-08-07T10:36:56.966Z,599
2018-08-07T10:37:57.025Z,590
2018-08-07T10:38:56.917Z,593
2018-08-07T10:39:56.713Z,599
2018-08-07T10:41:18.096Z,587
2018-08-07T10:42:18.888Z,591
2018-08-07T10:43:18.760Z,608
2018-08-07T10:44:18.675Z,622
2018-08-07T10:45:40.291Z,644
2018-08-07T10:46:41.255Z,638
2018-08-07T10:48:24.128Z,590
2018-08-07T10:49:25.654Z,601
2018-08-07T10:50:24.337Z,595
2018-08-07T10:51:25.214Z,598
2018-08-07T10:52:24.807Z,621
2018-08-07T10:53:24.708Z,627
2018-08-07T10:54:24.567Z,617
2018-08-07T10:55:24.338Z,616
2018-08-07T10:56:25.391Z,621
2018-08-07T10:57:24.260Z,610
2018-08-07T10:58:25.278Z,600
2018-08-07T10:59:24.263Z,607
2018-08-07T11:00:25.243Z,614
2018-08-07T11:01:25.881Z,620
2018-08-07T11:02:24.688Z,631
2018-08-07T11:03:46.075Z,634
2018-08-07T11:04:46.901Z,641
2018-08-07T11:05:46.880Z,651
2018-08-07T11:06:46.747Z,658
2018-08-07T11:07:46.875Z,669
2018-08-07T11:08:46.824Z,663
2018-08-07T11:09:46.848Z,640
2018-08-07T11:10:47.604Z,621
2018-08-07T11:11:46.760Z,623
2018-08-07T11:12:47.320Z,628
2018-08-07T11:13:46.414Z,636
2018-08-07T11:14:46.439Z,628
2018-08-07T11:15:46.471Z,608
2018-08-07T11:16:47.329Z,600
2018-08-07T11:17:47.315Z,583
2018-08-07T11:19:08.240Z,602
2018-08-07T11:20:08.354Z,635
2018-08-07T11:21:08.293Z,651
2018-08-07T11:22:08.240Z,644
2018-08-07T11:23:08.362Z,621
2018-08-07T11:24:30.210Z,617
2018-08-07T11:25:52.121Z,636
2018-08-07T11:26:51.997Z,656
2018-08-07T11:27:52.096Z,667
2018-08-07T11:29:35.346Z,685
2018-08-07T11:30:36.291Z,663
2018-08-07T11:31:36.154Z,627
2018-08-07T11:32:35.934Z,616
2018-08-07T11:33:58.562Z,625
2018-08-07T11:34:58.921Z,655
2018-08-07T11:35:57.827Z,685
2018-08-07T11:36:57.957Z,676
2018-08-07T11:37:58.099Z,637
2018-08-07T11:39:20.121Z,579
2018-08-07T11:40:20.069Z,593
2018-08-07T11:42:24.783Z,671
2018-08-07T11:43:25.648Z,673
2018-08-07T11:44:25.543Z,684
2018-08-07T11:45:25.560Z,672
2018-08-07T11:46:25.290Z,615
2018-08-07T11:47:25.110Z,604
2018-08-07T11:48:25.020Z,629
2018-08-07T11:49:24.890Z,640
2018-08-07T11:51:09.456Z,687
2018-08-07T11:52:10.078Z,689
2018-08-07T11:53:09.980Z,678
2018-08-07T11:54:10.463Z,690
2018-08-07T11:55:09.200Z,700
2018-08-07T11:56:30.571Z,677
2018-08-07T11:57:31.378Z,675
2018-08-07T11:58:52.960Z,694
2018-08-07T12:00:14.502Z,693
2018-08-07T12:01:15.207Z,680
2018-08-07T12:02:15.228Z,684
2018-08-07T12:03:15.068Z,688
2018-08-07T12:04:14.940Z,692
2018-08-07T12:05:15.091Z,705
2018-08-07T12:06:14.994Z,702
2018-08-07T12:07:14.773Z,669
2018-08-07T12:08:14.867Z,665
2018-08-07T12:09:14.586Z,690
2018-08-07T12:10:14.686Z,715
2018-08-07T12:11:14.632Z,705
2018-08-07T12:12:15.193Z,710
2018-08-07T12:13:15.213Z,727
2018-08-07T12:14:15.054Z,746
2018-08-07T12:15:14.794Z,752
2018-08-07T12:16:14.759Z,719
2018-08-07T12:17:36.333Z,682
2018-08-07T12:18:37.757Z,683
2018-08-07T12:19:36.587Z,683
2018-08-07T12:20:36.911Z,696
2018-08-07T12:21:36.850Z,748
2018-08-07T12:22:36.789Z,773
2018-08-07T12:23:37.618Z,754
2018-08-07T12:25:19.900Z,703
2018-08-07T12:26:21.921Z,650
2018-08-07T12:27:20.746Z,627
2018-08-07T12:28:20.680Z,652
2018-08-07T12:29:20.499Z,687
2018-08-07T12:30:20.512Z,668
2018-08-07T12:31:20.484Z,650
2018-08-07T12:32:43.061Z,668
2018-08-07T12:33:43.358Z,696
2018-08-07T12:34:43.591Z,700
2018-08-07T12:35:42.446Z,724
2018-08-07T12:36:44.469Z,745
2018-08-07T12:37:44.056Z,760
2018-08-07T12:38:43.066Z,736
2018-08-07T12:40:04.404Z,673
2018-08-07T12:41:26.204Z,680
2018-08-07T12:42:26.224Z,682
2018-08-07T12:43:27.143Z,688
2018-08-07T12:44:27.130Z,658
2018-08-07T12:45:26.047Z,581
2018-08-07T12:46:26.871Z,538
2018-08-07T12:47:48.701Z,530
2018-08-07T12:48:48.639Z,575
2018-08-07T12:49:49.573Z,532
2018-08-07T12:50:49.392Z,429
2018-08-07T12:52:11.120Z,362
2018-08-07T12:53:11.409Z,332
2018-08-07T12:54:11.324Z,321
2018-08-07T12:55:11.315Z,323
2018-08-07T12:56:11.421Z,331
2018-08-07T12:57:11.387Z,359
2018-08-07T12:58:11.404Z,427
2018-08-07T12:59:11.273Z,532
2018-08-07T13:00:32.951Z,616
2018-08-07T13:01:33.843Z,607
2018-08-07T13:02:34.452Z,610
2018-08-07T13:03:34.192Z,636
2018-08-07T13:04:55.307Z,646
2018-08-07T13:05:56.108Z,623
2018-08-07T13:06:56.550Z,560
2018-08-07T13:07:56.084Z,548
2018-08-07T13:08:58.431Z,574
2018-08-07T13:10:17.205Z,638
2018-08-07T13:11:18.182Z,631
2018-08-07T13:12:19.046Z,598
2018-08-07T13:13:18.109Z,612
2018-08-07T13:14:17.291Z,584
2018-08-07T13:16:05.277Z,580
2018-08-07T13:17:29.002Z,592
2018-08-07T13:18:29.806Z,642
2018-08-07T13:19:30.287Z,661
2018-08-07T13:20:30.662Z,638
2018-08-07T13:21:53.456Z,643
2018-08-07T13:22:53.618Z,640
2018-08-07T13:23:53.772Z,621
2018-08-07T13:25:41.394Z,624
2018-08-07T13:26:42.353Z,590
2018-08-07T13:27:42.915Z,566
2018-08-07T13:28:42.058Z,551
2018-08-07T13:29:42.002Z,561
2018-08-07T13:30:43.003Z,599
2018-08-07T13:31:41.996Z,598
2018-08-07T13:32:42.039Z,591
2018-08-07T13:34:05.677Z,610
2018-08-07T13:35:06.504Z,607
2018-08-07T13:36:06.596Z,609
2018-08-07T13:37:07.551Z,542
2018-08-07T13:38:06.767Z,506
2018-08-07T13:39:06.740Z,525
2018-08-07T13:40:07.260Z,525
2018-08-07T13:41:06.232Z,513
2018-08-07T13:42:06.353Z,523
2018-08-07T13:43:06.340Z,529
2018-08-07T13:44:06.291Z,530
2018-08-07T13:45:06.313Z,531
2018-08-07T13:46:06.330Z,535
2018-08-07T13:47:06.353Z,530
2018-08-07T13:48:06.504Z,511
2018-08-07T13:49:06.563Z,495
2018-08-07T13:50:06.752Z,527
2018-08-07T13:51:06.074Z,556
2018-08-07T13:52:29.880Z,537
2018-08-07T13:53:29.920Z,547
2018-08-07T13:54:30.157Z,534
2018-08-07T13:55:30.152Z,506
2018-08-07T13:56:31.333Z,506
2018-08-07T13:57:30.525Z,529
2018-08-07T13:58:30.281Z,518
2018-08-07T13:59:30.302Z,501
2018-08-07T14:00:30.191Z,504
2018-08-07T14:01:30.316Z,496
2018-08-07T14:02:54.142Z,484
2018-08-07T14:04:18.894Z,496
2018-08-07T14:05:20.452Z,510
2018-08-07T14:06:19.846Z,486
2018-08-07T14:07:18.768Z,468
2018-08-07T14:08:19.291Z,480
2018-08-07T14:09:19.471Z,477
2018-08-07T14:10:21.273Z,460
2018-08-07T14:11:19.430Z,460
2018-08-07T14:12:19.383Z,480
2018-08-07T14:13:19.469Z,491
2018-08-07T14:14:20.399Z,499
2018-08-07T14:15:20.071Z,501
2018-08-07T14:16:20.587Z,500
2018-08-07T14:17:20.303Z,498
2018-08-07T14:18:19.372Z,493
2018-08-07T14:19:19.419Z,487
2018-08-07T14:20:19.581Z,485
2018-08-07T14:21:42.479Z,483
2018-08-07T14:22:42.664Z,481
2018-08-07T14:23:42.621Z,482
2018-08-07T14:24:42.689Z,458
2018-08-07T14:25:42.658Z,416
2018-08-07T14:26:42.918Z,411
2018-08-07T14:27:43.907Z,450
2018-08-07T14:29:07.338Z,477
2018-08-07T14:30:07.538Z,480
2018-08-07T14:31:07.731Z,483
2018-08-07T14:32:08.238Z,492
2018-08-07T14:33:07.150Z,491
2018-08-07T14:34:07.343Z,466
2018-08-07T14:35:07.340Z,457
2018-08-07T14:36:07.674Z,447
2018-08-07T14:37:08.072Z,433
2018-08-07T14:38:07.160Z,410
2018-08-07T14:39:07.408Z,398
2018-08-07T14:40:07.576Z,401
2018-08-07T14:41:08.660Z,403
2018-08-07T14:42:07.960Z,402
2018-08-07T14:43:08.937Z,409
2018-08-07T14:44:07.974Z,412
2018-08-07T14:45:08.046Z,417
2018-08-07T14:46:07.934Z,414
2018-08-07T14:47:07.275Z,402
2018-08-07T14:48:07.590Z,399
2018-08-07T14:49:31.783Z,415
2018-08-07T14:50:32.142Z,424
2018-08-07T14:51:56.041Z,413
2018-08-07T14:52:56.249Z,387
2018-08-07T14:53:56.308Z,372
2018-08-07T14:54:56.444Z,374
2018-08-07T14:55:56.508Z,400